createdAt,value
2019-04-20T00:02:25.467Z,45.73
2019-04-20T00:04:59.097Z,46.10
2019-04-20T00:07:34.370Z,56.93
2019-04-20T00:10:09.880Z,61.47
2019-04-20T00:12:51.993Z,65.93
2019-04-20T00:15:09.004Z,68.37
2019-04-20T00:17:45.895Z,58.60
2019-04-20T00:20:19.014Z,56.73
2019-04-20T00:23:03.775Z,60.77
2019-04-20T00:25:52.203Z,61.17
2019-04-20T00:28:34.084Z,57.07
2019-04-20T00:31:05.565Z,65.37
2019-04-20T00:33:32.219Z,61.03
2019-04-20T00:35:54.976Z,58.23
2019-04-20T00:38:27.134Z,52.30
2019-04-20T00:41:02.759Z,46.40
2019-04-20T00:43:34.262Z,46.40
2019-04-20T00:46:08.227Z,48.93
2019-04-20T00:48:46.226Z,46.97
2019-04-20T00:51:39.587Z,44.43
2019-04-20T00:53:47.915Z,42.00
2019-04-20T00:56:16.155Z,42.37
2019-04-20T00:58:58.025Z,48.30
2019-04-20T01:01:46.182Z,48.40
2019-04-20T01:04:16.281Z,50.80
2019-04-20T01:06:42.496Z,49.20
2019-04-20T01:09:01.314Z,48.17
2019-04-20T01:11:38.409Z,47.87
2019-04-20T01:14:09.384Z,41.10
2019-04-20T01:16:43.976Z,42.33
2019-04-20T01:19:10.258Z,37.93
2019-04-20T01:21:43.022Z,33.97
2019-04-20T01:24:20.155Z,33.50
2019-04-20T01:26:50.796Z,31.77
2019-04-20T01:29:29.618Z,32.33
2019-04-20T01:32:05.697Z,34.00
2019-04-20T01:34:39.310Z,41.47
2019-04-20T01:37:13.099Z,43.13
2019-04-20T01:39:37.053Z,42.70
2019-04-20T01:42:02.434Z,32.90
2019-04-20T01:44:41.177Z,31.47
2019-04-20T01:47:08.241Z,27.80
2019-04-20T01:49:40.258Z,28.20
2019-04-20T01:52:20.195Z,28.00
2019-04-20T01:55:04.836Z,26.37
2019-04-20T01:57:37.557Z,30.10
2019-04-20T02:00:11.475Z,32.40
2019-04-20T02:02:52.055Z,32.30
2019-04-20T02:05:24.770Z,28.67
2019-04-20T02:07:55.571Z,29.43
2019-04-20T02:10:37.059Z,32.73
2019-04-20T02:13:02.891Z,26.30
2019-04-20T02:15:39.970Z,26.10
2019-04-20T02:18:17.607Z,28.60
2019-04-20T02:20:54.660Z,25.87
2019-04-20T02:23:23.511Z,27.47
2019-04-20T02:25:43.917Z,26.53
2019-04-20T02:28:34.030Z,26.30
2019-04-20T02:31:23.386Z,29.27
2019-04-20T02:36:58.781Z,42.80
2019-04-20T02:39:34.954Z,42.37
2019-04-20T02:41:50.951Z,50.10
2019-04-20T02:44:24.166Z,47.07
2019-04-20T02:52:19.120Z,51.77
2019-04-20T02:57:07.409Z,48.27
2019-04-20T03:01:57.984Z,53.00
2019-04-20T03:04:20.528Z,51.53
2019-04-20T03:06:58.331Z,60.77
2019-04-20T03:09:36.903Z,50.03
2019-04-20T03:12:07.980Z,57.37
2019-04-20T03:14:35.154Z,49.43
2019-04-20T03:17:18.267Z,52.67
2019-04-20T03:19:40.849Z,49.93
2019-04-20T03:22:23.580Z,45.13
2019-04-20T03:24:56.572Z,48.13
2019-04-20T03:27:28.143Z,43.23
2019-04-20T03:30:04.190Z,43.93
2019-04-20T03:35:17.386Z,35.57
2019-04-20T03:37:44.224Z,37.70
2019-04-20T03:40:10.305Z,37.87
2019-04-20T03:42:26.609Z,40.53
2019-04-20T03:45:04.153Z,41.43
2019-04-20T03:47:38.465Z,36.70
2019-04-20T03:50:24.953Z,32.40
2019-04-20T03:53:05.815Z,33.83
2019-04-20T03:55:25.937Z,34.87
2019-04-20T03:58:10.781Z,37.67
2019-04-20T04:00:36.160Z,39.03
2019-04-20T04:03:29.403Z,37.50
2019-04-20T04:05:51.886Z,38.43
2019-04-20T04:08:17.110Z,38.10
2019-04-20T04:11:06.682Z,37.47
2019-04-20T04:13:18.750Z,38.97
2019-04-20T04:15:55.592Z,37.43
2019-04-20T04:18:29.879Z,37.37
2019-04-20T04:21:01.988Z,44.07
2019-04-20T04:23:44.826Z,37.90
2019-04-20T04:26:20.307Z,34.33
2019-04-20T04:28:48.966Z,40.17
2019-04-20T04:31:27.630Z,43.93
2019-04-20T04:34:12.245Z,39.50
2019-04-20T04:36:30.114Z,40.60
2019-04-20T04:39:08.851Z,41.17
2019-04-20T04:41:37.950Z,35.47
2019-04-20T04:44:09.914Z,36.50
2019-04-20T04:46:24.876Z,37.10
2019-04-20T04:49:06.886Z,34.50
2019-04-20T04:51:41.744Z,41.20
2019-04-20T04:54:12.848Z,41.37
2019-04-20T04:56:35.558Z,40.43
2019-04-20T04:59:06.526Z,40.40
2019-04-20T05:01:39.380Z,43.47
2019-04-20T05:04:29.013Z,37.87
2019-04-20T05:06:59.478Z,35.27
2019-04-20T05:09:17.139Z,33.77
2019-04-20T05:11:56.911Z,33.23
2019-04-20T05:14:26.219Z,38.70
2019-04-20T05:17:07.379Z,34.27
2019-04-20T05:19:49.827Z,34.10
2019-04-20T05:22:22.938Z,28.50
2019-04-20T05:25:01.026Z,27.07
2019-04-20T05:27:36.351Z,26.27
2019-04-20T05:29:44.999Z,22.58
2019-04-20T05:32:31.428Z,17.37
2019-04-20T05:35:15.093Z,18.48
2019-04-20T05:37:48.898Z,21.00
2019-04-20T05:40:16.535Z,19.15
2019-04-20T05:42:52.359Z,20.52
2019-04-20T05:45:21.819Z,19.23
2019-04-20T05:47:53.611Z,17.87
2019-04-20T05:50:31.674Z,18.05
2019-04-20T05:53:07.440Z,19.25
2019-04-20T05:55:48.874Z,17.70
2019-04-20T05:58:26.187Z,16.35
2019-04-20T06:01:00.224Z,14.60
2019-04-20T06:03:26.115Z,14.73
2019-04-20T06:06:03.830Z,14.20
2019-04-20T06:08:47.515Z,12.20
2019-04-20T06:11:09.339Z,14.40
2019-04-20T06:13:43.126Z,11.73
2019-04-20T06:16:31.033Z,12.33
2019-04-20T06:19:15.571Z,11.53
2019-04-20T06:21:37.877Z,10.68
2019-04-20T06:24:20.769Z,10.82
2019-04-20T06:26:59.651Z,12.80
2019-04-20T06:29:18.468Z,12.23
2019-04-20T06:31:59.127Z,14.40
2019-04-20T06:34:41.621Z,9.50
2019-04-20T06:37:01.015Z,8.95
2019-04-20T06:39:44.748Z,11.08
2019-04-20T06:44:45.766Z,11.00
2019-04-20T06:47:29.422Z,9.00
2019-04-20T06:50:11.139Z,10.15
2019-04-20T07:00:18.047Z,8.75
2019-04-20T07:02:50.065Z,8.38
2019-04-20T07:08:00.423Z,14.73
2019-04-20T07:10:31.333Z,20.35
2019-04-20T07:12:56.780Z,16.87
2019-04-20T07:15:40.198Z,16.00
2019-04-20T07:18:16.699Z,15.08
2019-04-20T07:21:12.789Z,13.43
2019-04-20T07:23:51.676Z,15.43
2019-04-20T07:26:15.342Z,13.83
2019-04-20T07:28:50.533Z,21.02
2019-04-20T07:31:15.843Z,17.15
2019-04-20T07:33:48.001Z,19.50
2019-04-20T07:36:26.589Z,16.65
2019-04-20T07:38:54.253Z,15.28
2019-04-20T07:41:33.032Z,12.35
2019-04-20T07:44:04.059Z,12.28
2019-04-20T07:46:47.158Z,11.18
2019-04-20T07:49:08.843Z,10.08
2019-04-20T07:51:28.228Z,12.35
2019-04-20T07:54:23.284Z,11.55
2019-04-20T07:56:50.464Z,11.10
2019-04-20T07:59:14.041Z,12.65
2019-04-20T08:02:08.139Z,8.25
2019-04-20T08:04:35.300Z,12.18
2019-04-20T08:06:53.955Z,11.88
2019-04-20T08:09:31.850Z,12.15
2019-04-20T08:12:21.794Z,9.88
2019-04-20T08:14:57.045Z,10.88
2019-04-20T08:17:46.762Z,10.50
2019-04-20T08:19:50.931Z,7.60
2019-04-20T08:22:27.056Z,8.98
2019-04-20T08:25:00.596Z,9.00
2019-04-20T08:27:19.827Z,5.08
2019-04-20T08:30:09.070Z,5.70
2019-04-20T08:32:51.508Z,5.47
2019-04-20T08:35:31.938Z,5.62
2019-04-20T08:38:26.764Z,5.62
2019-04-20T08:40:40.280Z,3.45
2019-04-20T08:43:20.083Z,5.55
2019-04-20T08:45:49.454Z,3.58
2019-04-20T08:48:17.425Z,4.12
2019-04-20T08:50:44.993Z,4.53
2019-04-20T08:55:44.968Z,3.85
2019-04-20T08:58:04.877Z,2.90
2019-04-20T09:00:45.698Z,3.17
2019-04-20T09:03:17.326Z,3.90
2019-04-20T09:05:52.257Z,5.58
2019-04-20T09:08:21.239Z,3.15
2019-04-20T09:11:05.898Z,3.27
2019-04-20T09:13:29.953Z,4.42
2019-04-20T09:15:53.528Z,3.40
2019-04-20T09:18:49.400Z,3.22
2019-04-20T09:21:24.342Z,2.60
2019-04-20T09:24:13.217Z,5.83
2019-04-20T09:26:39.952Z,3.15
2019-04-20T09:29:13.714Z,3.50
2019-04-20T09:31:40.844Z,3.47
2019-04-20T09:34:17.321Z,4.17
2019-04-20T09:36:51.395Z,2.70
2019-04-20T09:39:21.349Z,3.65
2019-04-20T09:42:00.799Z,4.67
2019-04-20T09:44:30.189Z,5.40
2019-04-20T09:46:59.490Z,7.40
2019-04-20T09:49:42.575Z,3.47
2019-04-20T09:52:17.035Z,4.70
2019-04-20T09:54:52.558Z,7.62
2019-04-20T09:57:25.554Z,4.58
2019-04-20T09:59:58.629Z,3.65
2019-04-20T10:02:18.852Z,8.50
2019-04-20T10:04:47.327Z,5.30
2019-04-20T10:07:22.246Z,2.80
2019-04-20T10:09:52.069Z,4.47
2019-04-20T10:12:31.283Z,2.60
2019-04-20T10:15:12.407Z,4.37
2019-04-20T10:17:38.621Z,7.75
2019-04-20T10:20:19.442Z,4.72
2019-04-20T10:22:44.744Z,3.40
2019-04-20T10:25:15.810Z,7.95
2019-04-20T10:27:47.483Z,3.17
2019-04-20T10:30:18.681Z,3.27
2019-04-20T10:32:53.460Z,6.70
2019-04-20T10:35:23.843Z,4.78
2019-04-20T10:38:15.645Z,3.10
2019-04-20T10:40:59.785Z,9.35
2019-04-20T10:43:19.814Z,8.75
2019-04-20T10:45:50.991Z,4.25
2019-04-20T10:48:23.405Z,5.15
2019-04-20T10:50:54.861Z,5.37
2019-04-20T10:53:26.057Z,2.50
2019-04-20T10:55:57.748Z,4.42
2019-04-20T10:58:29.575Z,4.70
2019-04-20T11:01:01.780Z,12.55
2019-04-20T11:03:32.821Z,3.75
2019-04-20T11:06:04.834Z,3.62
2019-04-20T11:08:35.917Z,2.90
2019-04-20T11:11:13.018Z,4.78
2019-04-20T11:13:39.508Z,4.92
2019-04-20T11:16:10.772Z,6.78
2019-04-20T11:18:43.137Z,6.97
2019-04-20T11:21:15.426Z,11.05
2019-04-20T11:23:46.746Z,4.12
2019-04-20T11:26:18.140Z,5.55
2019-04-20T11:28:50.374Z,5.10
2019-04-20T11:31:22.017Z,3.65
2019-04-20T11:33:54.196Z,5.40
2019-04-20T11:36:27.433Z,5.17
2019-04-20T11:38:58.751Z,5.65
2019-04-20T11:41:32.690Z,3.58
2019-04-20T11:44:03.316Z,3.90
2019-04-20T11:46:34.584Z,4.85
2019-04-20T11:49:05.781Z,3.50
2019-04-20T11:51:37.353Z,4.97
2019-04-20T11:54:08.433Z,3.62
2019-04-20T11:56:43.493Z,3.10
2019-04-20T11:59:12.650Z,4.70
2019-04-20T12:02:03.675Z,2.40
2019-04-20T12:04:45.482Z,3.92
2019-04-20T12:07:11.145Z,5.67
2019-04-20T12:09:42.096Z,3.55
2019-04-20T12:12:24.627Z,3.83
2019-04-20T12:14:46.405Z,3.45
2019-04-20T12:17:17.685Z,2.30
2019-04-20T12:19:50.075Z,3.40
2019-04-20T12:22:22.201Z,2.40
2019-04-20T12:24:54.116Z,4.55
2019-04-20T12:27:25.180Z,4.33
2019-04-20T12:29:57.468Z,5.00
2019-04-20T12:32:36.433Z,4.60
2019-04-20T12:35:02.604Z,2.90
2019-04-20T12:37:34.661Z,2.90
2019-04-20T12:40:10.606Z,3.52
2019-04-20T12:42:43.164Z,4.22
2019-04-20T12:45:15.746Z,7.95
2019-04-20T12:47:48.637Z,3.20
2019-04-20T12:50:21.379Z,4.25
2019-04-20T12:52:52.604Z,3.95
2019-04-20T12:55:23.447Z,9.20
2019-04-20T12:57:54.529Z,3.35
2019-04-20T13:00:30.900Z,3.47
2019-04-20T13:03:03.105Z,3.92
2019-04-20T13:05:34.276Z,2.75
2019-04-20T13:08:07.447Z,4.00
2019-04-20T13:10:40.202Z,4.92
2019-04-20T13:13:28.184Z,2.20
2019-04-20T13:16:08.195Z,5.78
2019-04-20T13:18:41.250Z,5.17
2019-04-20T13:21:13.272Z,5.17
2019-04-20T13:23:45.401Z,3.80
2019-04-20T13:26:17.483Z,5.50
2019-04-20T13:28:48.836Z,9.15
2019-04-20T13:31:19.939Z,6.17
2019-04-20T13:33:51.620Z,6.15
2019-04-20T13:36:24.049Z,5.33
2019-04-20T13:38:56.406Z,5.05
2019-04-20T13:41:27.737Z,8.18
2019-04-20T13:44:01.291Z,8.55
2019-04-20T13:46:31.395Z,4.97
2019-04-20T13:49:02.983Z,3.47
2019-04-20T13:51:34.984Z,7.75
2019-04-20T13:54:13.902Z,9.70
2019-04-20T13:56:41.695Z,5.47
2019-04-20T13:59:23.769Z,6.53
2019-04-20T14:01:57.032Z,5.50
2019-04-20T14:04:30.700Z,7.17
2019-04-20T14:07:01.929Z,6.33
2019-04-20T14:09:35.274Z,6.15
2019-04-20T14:12:17.343Z,7.62
2019-04-20T14:14:39.265Z,6.62
2019-04-20T14:17:10.774Z,5.70
2019-04-20T14:19:42.823Z,7.15
2019-04-20T14:22:16.292Z,7.83
2019-04-20T14:24:48.908Z,5.78
2019-04-20T14:27:21.267Z,7.37
2019-04-20T14:29:52.965Z,6.08
2019-04-20T14:32:24.994Z,5.85
2019-04-20T14:34:56.813Z,6.37
2019-04-20T14:37:28.965Z,6.47
2019-04-20T14:40:00.605Z,6.33
2019-04-20T14:42:39.450Z,13.05
2019-04-20T14:45:09.271Z,6.70
2019-04-20T14:47:41.475Z,4.62
2019-04-20T14:50:13.726Z,6.92
2019-04-20T14:52:44.681Z,6.85
2019-04-20T14:55:17.729Z,5.20
2019-04-20T14:57:49.784Z,6.55
2019-04-20T15:00:49.957Z,6.70
2019-04-20T15:03:36.724Z,5.85
2019-04-20T15:06:05.823Z,10.10
2019-04-20T15:08:36.924Z,6.08
2019-04-20T15:11:09.262Z,8.93
2019-04-20T15:13:42.603Z,8.93
2019-04-20T15:16:14.904Z,8.85
2019-04-20T15:18:55.233Z,6.58
2019-04-20T15:21:31.631Z,21.60
2019-04-20T15:24:03.702Z,9.43
2019-04-20T15:26:36.183Z,15.08
2019-04-20T15:29:08.416Z,8.65
2019-04-20T15:31:39.499Z,9.00
2019-04-20T15:34:10.867Z,10.50
2019-04-20T15:36:44.309Z,12.05
2019-04-20T15:39:16.929Z,5.78
2019-04-20T15:41:49.568Z,9.35
2019-04-20T15:44:21.578Z,16.93
2019-04-20T15:46:53.512Z,7.40
2019-04-20T15:49:24.420Z,20.23
2019-04-20T15:51:55.723Z,20.55
2019-04-20T15:54:27.523Z,12.35
2019-04-20T15:57:02.533Z,16.70
2019-04-20T15:59:32.604Z,7.80
2019-04-20T16:02:09.400Z,7.83
2019-04-20T16:04:52.514Z,8.90
2019-04-20T16:07:25.421Z,17.30
2019-04-20T16:09:56.869Z,10.53
2019-04-20T16:12:29.103Z,7.85
2019-04-20T16:15:00.113Z,9.48
2019-04-20T16:17:38.301Z,6.28
2019-04-20T16:20:09.107Z,6.12
2019-04-20T16:22:36.683Z,8.78
2019-04-20T16:25:16.991Z,7.78
2019-04-20T16:27:49.774Z,11.40
2019-04-20T16:30:20.809Z,6.75
2019-04-20T16:33:03.002Z,9.75
2019-04-20T16:35:40.546Z,10.90
2019-04-20T16:38:16.266Z,8.20
2019-04-20T16:40:54.618Z,7.08
2019-04-20T16:43:43.006Z,11.12
2019-04-20T16:46:13.156Z,12.07
2019-04-20T16:48:44.409Z,9.58
2019-04-20T16:51:16.628Z,12.23
2019-04-20T16:53:48.003Z,10.15
2019-04-20T16:56:21.051Z,8.08
2019-04-20T16:58:57.285Z,9.83
2019-04-20T17:01:25.624Z,8.68
2019-04-20T17:04:03.913Z,9.85
2019-04-20T17:06:30.019Z,13.40
2019-04-20T17:09:01.231Z,14.43
2019-04-20T17:11:32.282Z,13.78
2019-04-20T17:14:04.080Z,43.55
2019-04-20T17:16:35.518Z,16.82
2019-04-20T17:19:07.891Z,13.50
2019-04-20T17:21:40.156Z,17.25
2019-04-20T17:24:11.387Z,21.07
2019-04-20T17:26:52.964Z,26.10
2019-04-20T17:29:28.175Z,24.40
2019-04-20T17:32:08.056Z,18.17
2019-04-20T17:34:57.175Z,18.42
2019-04-20T17:37:12.892Z,19.82
2019-04-20T17:40:06.735Z,28.95
2019-04-20T17:42:32.951Z,31.75
2019-04-20T17:45:02.219Z,31.68
2019-04-20T17:47:44.806Z,40.70
2019-04-20T17:50:17.257Z,41.92
2019-04-20T17:52:50.066Z,38.88
2019-04-20T17:55:24.579Z,31.30
2019-04-20T17:57:47.319Z,27.60
2019-04-20T18:00:22.505Z,19.82
2019-04-20T18:03:12.023Z,21.82
2019-04-20T18:05:51.658Z,22.52
2019-04-20T18:08:26.342Z,21.97
2019-04-20T18:10:53.026Z,25.35
2019-04-20T18:13:19.890Z,31.40
2019-04-20T18:16:05.093Z,26.20
2019-04-20T18:18:41.434Z,41.33
2019-04-20T18:21:06.381Z,47.80
2019-04-20T18:23:44.508Z,40.90
2019-04-20T18:26:35.856Z,36.77
2019-04-20T18:29:23.942Z,32.00
2019-04-20T18:31:31.399Z,36.58
2019-04-20T18:34:20.848Z,28.53
2019-04-20T18:37:02.117Z,30.52
2019-04-20T18:39:42.070Z,33.13
2019-04-20T18:42:16.509Z,34.20
2019-04-20T18:45:00.963Z,42.05
2019-04-20T18:47:34.733Z,55.57
2019-04-20T18:49:57.286Z,37.90
2019-04-20T18:52:21.999Z,32.13
2019-04-20T18:54:55.374Z,26.33
2019-04-20T18:57:29.231Z,20.43
2019-04-20T19:00:02.375Z,22.13
2019-04-20T19:02:40.018Z,22.53
2019-04-20T19:05:08.687Z,25.17
2019-04-20T19:07:48.023Z,22.90
2019-04-20T19:10:18.658Z,25.60
2019-04-20T19:12:54.276Z,30.40
2019-04-20T19:15:45.021Z,30.73
2019-04-20T19:18:12.692Z,37.27
2019-04-20T19:20:35.081Z,34.47
2019-04-20T19:23:08.278Z,33.27
2019-04-20T19:25:44.197Z,30.90
2019-04-20T19:28:21.651Z,30.33
2019-04-20T19:31:01.794Z,22.67
2019-04-20T19:33:33.176Z,21.20
2019-04-20T19:36:10.587Z,22.40
2019-04-20T19:38:40.849Z,28.00
2019-04-20T19:41:15.999Z,32.47
2019-04-20T19:43:45.814Z,35.13
2019-04-20T19:46:39.661Z,42.57
2019-04-20T19:48:53.948Z,43.33
2019-04-20T19:51:35.759Z,43.30
2019-04-20T19:54:13.150Z,40.03
2019-04-20T19:56:41.466Z,41.73
2019-04-20T19:59:13.678Z,45.57
2019-04-20T20:01:35.637Z,48.23
2019-04-20T20:04:10.037Z,48.03
2019-04-20T20:06:46.014Z,47.33
2019-04-20T20:09:16.103Z,47.07
2019-04-20T20:11:46.751Z,43.93
2019-04-20T20:14:28.857Z,41.23
2019-04-20T20:17:12.941Z,34.83
2019-04-20T20:19:37.149Z,32.93
2019-04-20T20:22:08.981Z,34.47
2019-04-20T20:24:29.515Z,29.50
2019-04-20T20:27:06.158Z,30.83
2019-04-20T20:29:38.362Z,30.60
2019-04-20T20:32:18.015Z,37.83
2019-04-20T20:34:43.467Z,32.37
2019-04-20T20:37:23.224Z,33.13
2019-04-20T20:39:53.798Z,34.47
2019-04-20T20:42:30.902Z,34.57
2019-04-20T20:44:55.139Z,40.70
2019-04-20T20:47:50.601Z,41.13
2019-04-20T20:50:19.946Z,38.47
2019-04-20T20:52:45.111Z,39.30
2019-04-20T20:55:20.940Z,37.83
2019-04-20T20:57:52.035Z,40.03
2019-04-20T21:00:32.038Z,45.37
2019-04-20T21:02:58.491Z,39.23
2019-04-20T21:05:25.325Z,42.67
2019-04-20T21:07:57.417Z,49.57
2019-04-20T21:10:40.199Z,48.47
2019-04-20T21:13:10.293Z,50.27
2019-04-20T21:15:40.573Z,47.60
2019-04-20T21:18:35.129Z,50.93
2019-04-20T21:21:02.138Z,51.07
2019-04-20T21:23:32.651Z,49.73
2019-04-20T21:26:16.910Z,53.23
2019-04-20T21:28:43.781Z,50.40
2019-04-20T21:31:21.988Z,49.23
2019-04-20T21:33:48.948Z,49.47
2019-04-20T21:36:25.905Z,43.37
2019-04-20T21:39:15.255Z,45.03
2019-04-20T21:41:51.218Z,48.47
2019-04-20T21:44:24.286Z,51.73
2019-04-20T21:46:54.624Z,51.67
2019-04-20T21:49:43.942Z,63.03
2019-04-20T21:52:03.664Z,54.70
2019-04-20T21:54:34.051Z,53.30
2019-04-20T21:57:09.479Z,60.47
2019-04-20T21:59:43.202Z,59.10
2019-04-20T22:02:18.606Z,65.90
2019-04-20T22:04:43.223Z,68.13
2019-04-20T22:07:16.487Z,69.40
2019-04-20T22:09:51.605Z,70.07
2019-04-20T22:12:20.408Z,73.23
2019-04-20T22:14:58.955Z,64.63
2019-04-20T22:17:28.894Z,64.17
2019-04-20T22:20:10.279Z,55.20
2019-04-20T22:22:49.448Z,55.93
2019-04-20T22:25:26.305Z,57.63
2019-04-20T22:27:37.620Z,52.60
2019-04-20T22:30:10.335Z,56.40
2019-04-20T22:32:44.146Z,47.47
2019-04-20T22:35:16.211Z,48.17
2019-04-20T22:37:58.869Z,45.30
2019-04-20T22:40:28.854Z,43.40
2019-04-20T22:43:00.089Z,43.07
2019-04-20T22:45:33.963Z,44.07
2019-04-20T22:48:07.270Z,41.00
2019-04-20T22:50:52.895Z,42.20
2019-04-20T22:53:22.705Z,37.40
2019-04-20T22:56:04.600Z,39.30
2019-04-20T22:58:47.926Z,42.57
2019-04-20T23:01:14.373Z,47.93
2019-04-20T23:03:36.744Z,51.57
2019-04-20T23:06:09.034Z,51.90
2019-04-20T23:08:40.527Z,54.30
2019-04-20T23:11:18.080Z,53.63
2019-04-20T23:13:46.988Z,54.33
2019-04-20T23:16:17.415Z,57.27
2019-04-20T23:18:49.725Z,62.80
2019-04-20T23:21:21.716Z,62.40
2019-04-20T23:24:01.560Z,65.00
2019-04-20T23:26:35.903Z,65.87
2019-04-20T23:29:02.427Z,62.57
2019-04-20T23:31:32.407Z,65.30
2019-04-20T23:34:12.378Z,67.30
2019-04-20T23:36:40.339Z,68.37
2019-04-20T23:39:10.694Z,60.70
2019-04-20T23:41:49.894Z,59.47
2019-04-20T23:44:23.042Z,60.73
2019-04-20T23:47:04.560Z,52.27
2019-04-20T23:49:38.123Z,55.63
2019-04-20T23:52:26.076Z,55.00
2019-04-20T23:54:37.569Z,57.63
2019-04-20T23:57:09.023Z,55.67
2019-04-20T23:59:43.169Z,57.57
